Time;durP1;ratioP1;P1;durP2;ratioP2;P2;SDS_P1;SDS_P2;PMS_P1;PMS_P2;Temp;Humidity;BMP_temperature;BMP_pressure;BME280_temperature;BME280_humidity;BME280_pressure;Samples;Min_cycle;Max_cycle;Signal;HPM_P1;HPM_P2
2023/08/18 00:01:23;;;;;;;3.83;2.72;;;21.20;99.90;;;;;;5034076;28;20045;-67
2023/08/18 00:03:48;;;;;;;6.22;3.95;;;21.30;99.90;;;;;;5020790;28;20497;-68
2023/08/18 00:06:14;;;;;;;3.92;3.50;;;21.20;99.90;;;;;;5039444;28;20039;-67
2023/08/18 00:08:40;;;;;;;5.72;4.10;;;21.30;99.90;;;;;;5026822;28;20545;-68
2023/08/18 00:11:05;;;;;;;3.95;3.55;;;21.30;99.90;;;;;;5033697;28;20033;-68
2023/08/18 00:13:31;;;;;;;5.47;3.40;;;21.30;99.90;;;;;;5030914;28;20059;-74
2023/08/18 00:15:57;;;;;;;3.80;3.50;;;21.30;99.90;;;;;;5031286;28;20501;-74
2023/08/18 00:18:23;;;;;;;6.20;3.80;;;21.30;99.90;;;;;;5033315;28;20037;-74
2023/08/18 00:20:50;;;;;;;5.82;4.25;;;21.30;99.90;;;;;;5033114;28;20093;-74
2023/08/18 00:23:15;;;;;;;4.18;3.78;;;21.40;99.90;;;;;;5029649;28;20032;-74
2023/08/18 00:25:41;;;;;;;4.65;3.53;;;21.30;99.90;;;;;;5029672;28;20481;-75
2023/08/18 00:28:07;;;;;;;3.70;3.40;;;21.30;99.90;;;;;;5029352;28;20029;-74
2023/08/18 00:30:33;;;;;;;4.97;3.50;;;21.40;99.90;;;;;;5033644;28;20601;-74
2023/08/18 00:32:58;;;;;;;6.82;4.00;;;21.30;99.90;;;;;;5030593;28;20036;-73
2023/08/18 00:35:24;;;;;;;3.67;3.30;;;21.30;99.90;;;;;;5031013;28;20755;-74
2023/08/18 00:37:50;;;;;;;4.82;3.55;;;21.30;99.90;;;;;;5033767;28;20097;-74
2023/08/18 00:40:16;;;;;;;5.45;3.65;;;21.30;99.90;;;;;;5029201;28;20722;-74
2023/08/18 00:42:42;;;;;;;8.07;4.18;;;21.30;99.90;;;;;;5028802;28;20044;-74
2023/08/18 00:45:08;;;;;;;4.03;3.63;;;21.40;99.90;;;;;;5033093;28;20029;-74
2023/08/18 00:47:34;;;;;;;5.95;3.70;;;21.40;99.90;;;;;;5035011;28;20059;-75
2023/08/18 00:50:01;;;;;;;7.68;3.80;;;21.30;99.90;;;;;;5031017;28;20048;-74
2023/08/18 00:52:27;;;;;;;5.53;3.42;;;21.30;99.90;;;;;;5033466;28;20512;-74
2023/08/18 00:54:53;;;;;;;7.13;3.50;;;21.30;99.90;;;;;;5029492;28;20498;-75
2023/08/18 00:57:20;;;;;;;3.83;3.53;;;21.30;99.90;;;;;;5013809;28;20051;-75
2023/08/18 00:59:46;;;;;;;5.07;3.80;;;21.30;99.90;;;;;;5016052;28;20047;-74
2023/08/18 01:02:12;;;;;;;3.85;3.47;;;21.30;99.90;;;;;;5023017;28;20167;-73
2023/08/18 01:04:38;;;;;;;5.47;4.00;;;21.30;99.90;;;;;;5027036;28;20385;-73
2023/08/18 01:07:04;;;;;;;7.30;3.63;;;21.30;99.90;;;;;;5034255;28;20196;-74
2023/08/18 01:09:31;;;;;;;6.85;3.88;;;21.30;99.90;;;;;;5032426;28;20092;-74
2023/08/18 01:12:22;;;;;;;5.25;3.90;;;21.30;99.90;;;;;;5027962;28;20107;-74
2023/08/18 01:14:59;;;;;;;6.32;3.70;;;21.30;99.90;;;;;;5025815;28;20029;-74
2023/08/18 01:17:35;;;;;;;3.88;3.58;;;21.30;99.90;;;;;;5030978;28;20018;-74
2023/08/18 01:20:03;;;;;;;3.92;3.63;;;21.30;99.90;;;;;;5030296;28;20529;-74
2023/08/18 01:22:31;;;;;;;4.68;3.83;;;21.30;99.90;;;;;;5029226;28;20036;-74
2023/08/18 01:25:00;;;;;;;3.65;3.33;;;21.40;99.90;;;;;;5028826;28;20566;-73
2023/08/18 01:27:25;;;;;;;6.07;3.83;;;21.30;99.90;;;;;;5027186;28;20013;-72
2023/08/18 01:29:51;;;;;;;4.28;3.70;;;21.30;99.90;;;;;;5030406;28;20021;-73
2023/08/18 01:32:18;;;;;;;4.63;3.47;;;21.30;99.90;;;;;;5030264;28;22424;-72
2023/08/18 01:34:46;;;;;;;6.45;3.67;;;21.30;99.90;;;;;;5030736;28;20124;-73
2023/08/18 01:37:14;;;;;;;7.13;3.70;;;21.30;99.90;;;;;;5032792;28;20035;-73
2023/08/18 01:39:40;;;;;;;6.03;3.97;;;21.30;99.90;;;;;;5034395;28;20029;-73
2023/08/18 01:42:06;;;;;;;3.75;3.40;;;21.30;99.90;;;;;;5030572;28;20036;-73
2023/08/18 01:44:31;;;;;;;4.38;3.42;;;21.40;99.90;;;;;;5019028;28;20381;-73
2023/08/18 01:46:57;;;;;;;7.25;3.35;;;21.40;99.90;;;;;;5035920;28;20078;-72
2023/08/18 01:49:23;;;;;;;3.97;3.50;;;21.40;99.90;;;;;;5026525;28;20493;-73
2023/08/18 01:51:49;;;;;;;7.22;3.00;;;21.40;99.90;;;;;;5026343;28;20347;-73
2023/08/18 01:54:14;;;;;;;6.72;3.53;;;21.40;99.90;;;;;;5033127;28;20045;-73
2023/08/18 01:56:40;;;;;;;6.68;3.35;;;21.30;99.90;;;;;;5031650;28;20065;-73
2023/08/18 01:59:05;;;;;;;6.20;3.65;;;21.30;99.90;;;;;;5032172;28;20121;-73
2023/08/18 02:01:31;;;;;;;3.92;3.20;;;21.30;99.90;;;;;;5032320;28;20045;-73
2023/08/18 02:03:57;;;;;;;9.00;3.92;;;21.30;99.90;;;;;;5031437;28;20029;-74
2023/08/18 02:06:23;;;;;;;5.80;3.35;;;21.20;99.90;;;;;;5014404;28;20033;-73
2023/08/18 02:08:48;;;;;;;5.28;3.50;;;21.20;99.90;;;;;;5033725;28;20108;-74
2023/08/18 02:11:14;;;;;;;4.65;3.35;;;21.20;99.90;;;;;;5031609;28;20044;-73
2023/08/18 02:13:40;;;;;;;5.38;3.47;;;21.10;99.90;;;;;;5035601;28;20529;-74
2023/08/18 02:16:05;;;;;;;5.45;3.70;;;21.10;99.90;;;;;;5041524;28;20436;-74
2023/08/18 02:18:32;;;;;;;4.28;3.70;;;21.10;99.90;;;;;;5041623;28;20063;-73
2023/08/18 02:20:59;;;;;;;5.55;4.47;;;21.10;99.90;;;;;;5037282;28;20042;-66
2023/08/18 02:23:25;;;;;;;5.25;3.47;;;21.10;99.90;;;;;;5032201;28;20035;-66
2023/08/18 02:25:51;;;;;;;8.57;3.92;;;21.10;99.90;;;;;;5036790;28;20025;-66
2023/08/18 02:28:19;;;;;;;4.53;3.55;;;21.10;99.90;;;;;;5030575;28;20062;-66
2023/08/18 02:30:45;;;;;;;4.28;3.67;;;21.10;99.90;;;;;;5038235;28;20029;-66
2023/08/18 02:33:10;;;;;;;5.00;3.85;;;21.10;99.90;;;;;;5032220;28;20028;-67
2023/08/18 02:35:36;;;;;;;4.90;3.08;;;21.10;99.90;;;;;;5037637;28;20029;-66
2023/08/18 02:38:02;;;;;;;3.50;3.20;;;21.10;99.90;;;;;;5033761;28;20744;-67
2023/08/18 02:40:27;;;;;;;4.50;3.50;;;21.10;99.90;;;;;;5033140;28;20126;-66
2023/08/18 02:42:53;;;;;;;7.90;3.70;;;21.00;99.90;;;;;;5018310;28;20504;-67
2023/08/18 02:45:18;;;;;;;3.85;3.55;;;21.00;99.90;;;;;;5036516;28;20119;-67
2023/08/18 02:47:44;;;;;;;4.20;3.80;;;21.00;99.90;;;;;;5035820;28;20041;-67
2023/08/18 02:50:10;;;;;;;5.03;3.33;;;20.90;99.90;;;;;;5033003;28;20053;-67
2023/08/18 02:52:36;;;;;;;4.10;3.42;;;20.90;99.90;;;;;;5033957;28;20044;-66
2023/08/18 02:55:01;;;;;;;6.82;3.92;;;20.90;99.90;;;;;;5036590;28;20525;-66
2023/08/18 02:57:27;;;;;;;3.78;3.45;;;20.90;99.90;;;;;;5031544;28;20037;-67
2023/08/18 02:59:53;;;;;;;5.70;3.92;;;20.90;99.90;;;;;;5034430;28;20550;-66
2023/08/18 03:02:18;;;;;;;8.52;3.47;;;20.90;99.90;;;;;;5033818;28;20033;-66
2023/08/18 03:04:44;;;;;;;4.03;3.47;;;20.80;99.90;;;;;;5037270;28;20033;-66
2023/08/18 03:07:09;;;;;;;5.75;3.22;;;20.80;99.90;;;;;;5036812;28;20491;-66
2023/08/18 03:09:35;;;;;;;5.80;3.50;;;20.70;99.90;;;;;;5034351;28;20018;-66
2023/08/18 03:12:01;;;;;;;7.82;3.67;;;20.70;99.90;;;;;;5029184;28;20482;-66
2023/08/18 03:14:26;;;;;;;5.18;3.58;;;20.70;99.90;;;;;;5035818;28;20037;-66
2023/08/18 03:16:52;;;;;;;4.57;4.10;;;20.60;99.90;;;;;;5035048;28;20112;-66
2023/08/18 03:19:18;;;;;;;3.97;3.63;;;20.60;99.90;;;;;;5039908;28;20122;-66
2023/08/18 03:21:43;;;;;;;7.47;3.85;;;20.60;99.90;;;;;;5037030;28;20485;-66
2023/08/18 03:24:09;;;;;;;6.35;3.80;;;20.60;99.90;;;;;;5037504;28;20032;-66
2023/08/18 03:26:35;;;;;;;7.90;3.70;;;20.60;99.90;;;;;;5030415;28;20033;-66
2023/08/18 03:29:00;;;;;;;4.93;3.60;;;20.70;99.90;;;;;;5026657;28;20820;-66
2023/08/18 03:31:26;;;;;;;5.88;4.05;;;20.70;99.90;;;;;;5038080;28;20033;-66
2023/08/18 03:33:52;;;;;;;3.78;3.47;;;20.70;99.90;;;;;;5035354;28;20608;-66
2023/08/18 03:36:18;;;;;;;6.20;3.58;;;20.70;99.90;;;;;;5033199;28;20031;-66
2023/08/18 03:38:43;;;;;;;5.25;3.90;;;20.70;99.90;;;;;;5033453;28;20036;-66
2023/08/18 03:41:09;;;;;;;4.90;3.80;;;20.80;99.90;;;;;;5011139;28;20438;-67
2023/08/18 03:43:35;;;;;;;4.90;3.80;;;20.80;99.90;;;;;;5034001;28;20440;-66
2023/08/18 03:46:15;;;;;;;4.75;3.70;;;20.80;99.90;;;;;;5033501;28;20028;-67
2023/08/18 03:48:40;;;;;;;5.47;3.60;;;20.90;99.90;;;;;;5028705;28;20025;-66
2023/08/18 03:51:06;;;;;;;4.63;4.20;;;20.90;99.90;;;;;;5017181;28;20040;-66
2023/08/18 03:53:31;;;;;;;4.22;3.83;;;20.90;99.90;;;;;;5035532;28;20028;-67
2023/08/18 03:55:59;;;;;;;5.05;3.85;;;20.90;99.90;;;;;;5032227;28;20044;-67
2023/08/18 03:58:25;;;;;;;3.85;3.53;;;20.90;99.90;;;;;;5029731;28;20828;-67
2023/08/18 04:00:50;;;;;;;5.85;3.97;;;20.90;99.90;;;;;;5032975;28;20037;-67
2023/08/18 04:03:16;;;;;;;5.55;3.67;;;20.90;99.90;;;;;;5030619;28;20028;-67
2023/08/18 04:05:47;;;;;;;4.03;3.63;;;20.90;99.90;;;;;;5018864;28;20525;-67
2023/08/18 04:08:15;;;;;;;4.22;3.92;;;20.90;99.90;;;;;;5035833;28;20029;-68
2023/08/18 04:10:41;;;;;;;5.25;3.92;;;20.90;99.90;;;;;;5030078;28;20036;-67
2023/08/18 04:13:06;;;;;;;4.38;3.95;;;20.90;99.90;;;;;;5030144;28;20032;-67
2023/08/18 04:15:32;;;;;;;5.63;3.80;;;20.90;99.90;;;;;;5035305;28;20029;-67
2023/08/18 04:17:58;;;;;;;8.70;3.55;;;20.90;99.90;;;;;;5033100;28;20028;-67
2023/08/18 04:20:23;;;;;;;6.78;3.80;;;20.90;99.90;;;;;;5019904;28;20171;-67
2023/08/18 04:22:49;;;;;;;4.18;3.83;;;20.90;99.90;;;;;;5028781;28;20080;-67
2023/08/18 04:25:14;;;;;;;4.97;3.80;;;20.90;99.90;;;;;;5031357;28;20162;-68
2023/08/18 04:27:40;;;;;;;7.18;4.20;;;20.90;99.90;;;;;;5035039;28;20032;-67
2023/08/18 04:30:06;;;;;;;4.13;3.72;;;20.90;99.90;;;;;;5031736;28;20068;-67
2023/08/18 04:32:32;;;;;;;3.67;3.38;;;21.00;99.90;;;;;;5034176;28;20152;-67
2023/08/18 04:34:59;;;;;;;6.85;4.10;;;21.00;99.90;;;;;;5035774;28;20033;-67
2023/08/18 04:37:24;;;;;;;4.45;4.05;;;21.00;99.90;;;;;;5033364;28;20020;-67
2023/08/18 04:39:52;;;;;;;5.40;3.42;;;21.00;99.90;;;;;;5032796;28;20675;-67
2023/08/18 04:42:17;;;;;;;4.22;3.70;;;21.00;99.90;;;;;;5033476;28;20033;-67
2023/08/18 04:44:43;;;;;;;7.93;4.68;;;21.00;99.90;;;;;;5031050;28;20896;-68
2023/08/18 04:47:08;;;;;;;4.18;3.88;;;21.00;99.90;;;;;;5034914;28;20037;-68
2023/08/18 04:49:34;;;;;;;4.65;3.63;;;21.00;99.90;;;;;;5036041;28;20533;-67
2023/08/18 04:52:00;;;;;;;7.70;4.63;;;21.10;99.90;;;;;;5014196;28;20033;-68
2023/08/18 04:54:25;;;;;;;6.13;3.63;;;21.10;99.90;;;;;;5037079;28;20036;-68
2023/08/18 04:56:58;;;;;;;4.85;4.38;;;21.10;99.90;;;;;;5032767;28;20037;-67
2023/08/18 04:59:23;;;;;;;7.47;4.32;;;21.10;99.90;;;;;;5021779;28;20080;-67
2023/08/18 05:01:51;;;;;;;5.43;4.07;;;21.20;99.90;;;;;;5027634;28;20983;-67
2023/08/18 05:04:17;;;;;;;5.57;4.63;;;21.20;99.90;;;;;;5034412;28;20053;-68
2023/08/18 05:06:43;;;;;;;4.97;4.18;;;21.20;99.90;;;;;;5030257;28;20059;-68
2023/08/18 05:09:08;;;;;;;5.05;4.55;;;21.30;99.90;;;;;;5036083;28;20029;-68
2023/08/18 05:11:34;;;;;;;4.65;4.25;;;21.30;99.90;;;;;;5022192;28;20505;-67
2023/08/18 05:14:00;;;;;;;5.28;4.32;;;21.30;99.90;;;;;;5036396;28;20051;-68
2023/08/18 05:16:25;;;;;;;6.90;4.50;;;21.30;99.90;;;;;;5034020;28;20029;-67
2023/08/18 05:18:51;;;;;;;5.50;4.13;;;21.40;99.90;;;;;;5011988;28;20383;-67
2023/08/18 05:21:16;;;;;;;4.93;4.43;;;21.40;99.90;;;;;;5030703;28;20119;-67
2023/08/18 05:23:43;;;;;;;8.75;4.80;;;21.40;99.90;;;;;;5027839;28;20025;-68
2023/08/18 05:26:09;;;;;;;5.82;4.70;;;21.50;99.90;;;;;;5014105;28;20126;-67
2023/08/18 05:28:35;;;;;;;5.82;4.30;;;21.50;99.90;;;;;;5019433;28;20541;-67
2023/08/18 05:31:00;;;;;;;5.38;3.92;;;21.50;99.90;;;;;;5031869;28;20085;-67
2023/08/18 05:33:26;;;;;;;11.70;4.40;;;21.60;99.90;;;;;;5036898;28;20025;-67
2023/08/18 05:35:52;;;;;;;4.85;4.45;;;21.60;99.90;;;;;;5031687;28;20039;-67
2023/08/18 05:38:17;;;;;;;4.80;4.30;;;21.70;99.90;;;;;;5033756;28;20025;-67
2023/08/18 05:40:50;;;;;;;6.72;4.65;;;21.70;99.90;;;;;;5024151;28;20041;-67
2023/08/18 05:43:18;;;;;;;4.90;4.43;;;21.70;99.90;;;;;;5027945;28;20030;-68
2023/08/18 05:45:46;;;;;;;5.30;4.82;;;21.80;99.90;;;;;;5027887;28;20028;-67
2023/08/18 05:48:12;;;;;;;4.85;4.40;;;21.80;99.90;;;;;;5034307;28;20040;-67
2023/08/18 05:50:38;;;;;;;5.53;4.60;;;21.90;99.90;;;;;;5038589;28;20498;-67
2023/08/18 05:53:04;;;;;;;5.15;4.30;;;21.90;99.90;;;;;;5038034;28;20026;-67
2023/08/18 05:55:31;;;;;;;4.82;4.43;;;22.00;99.90;;;;;;5035049;28;20762;-67
2023/08/18 05:58:01;;;;;;;4.22;3.83;;;22.10;99.90;;;;;;5034479;28;20034;-67
2023/08/18 06:00:28;;;;;;;4.28;3.90;;;22.20;99.90;;;;;;5033460;28;20065;-77
2023/08/18 06:02:54;;;;;;;4.93;3.95;;;22.20;99.90;;;;;;5042209;28;20091;-77
2023/08/18 06:05:20;;;;;;;4.43;3.97;;;22.30;99.90;;;;;;5035778;28;20032;-76
2023/08/18 06:07:46;;;;;;;4.35;3.95;;;22.40;99.90;;;;;;5039454;28;20041;-76
2023/08/18 06:10:11;;;;;;;6.05;3.63;;;22.60;99.90;;;;;;5036745;28;20060;-77
2023/08/18 06:12:38;;;;;;;4.05;3.58;;;22.70;99.90;;;;;;5033624;28;20120;-76
2023/08/18 06:15:05;;;;;;;5.32;3.33;;;22.80;99.90;;;;;;5023682;28;20540;-77
2023/08/18 06:17:30;;;;;;;5.05;3.42;;;22.90;99.90;;;;;;5039091;28;20474;-76
2023/08/18 06:19:56;;;;;;;5.07;3.65;;;23.00;99.90;;;;;;5040082;28;20071;-75
2023/08/18 06:22:22;;;;;;;5.97;3.47;;;23.00;99.90;;;;;;5035636;28;20037;-75
2023/08/18 06:24:47;;;;;;;5.72;3.05;;;23.10;99.90;;;;;;5035787;28;20485;-75
2023/08/18 06:27:13;;;;;;;6.00;3.60;;;23.20;99.90;;;;;;5035409;28;20097;-75
2023/08/18 06:29:39;;;;;;;15.38;3.45;;;23.30;99.90;;;;;;5038141;28;20063;-75
2023/08/18 06:32:05;;;;;;;5.38;2.80;;;23.50;99.90;;;;;;5028734;28;20124;-76
2023/08/18 06:34:30;;;;;;;4.68;3.10;;;23.60;99.90;;;;;;5033532;28;20029;-75
2023/08/18 06:36:56;;;;;;;4.22;3.60;;;23.80;99.90;;;;;;5039045;28;20393;-76
2023/08/18 06:39:22;;;;;;;3.70;3.38;;;23.90;99.90;;;;;;5039206;28;21219;-75
2023/08/18 06:41:47;;;;;;;4.60;3.15;;;24.00;99.90;;;;;;5027490;28;20528;-75
2023/08/18 06:44:13;;;;;;;4.03;3.60;;;24.10;99.90;;;;;;5032206;28;20037;-75
2023/08/18 06:46:39;;;;;;;4.25;3.88;;;24.10;99.90;;;;;;5025125;28;20036;-74
2023/08/18 06:49:05;;;;;;;4.22;3.83;;;24.20;99.90;;;;;;5031733;28;20029;-74
2023/08/18 06:51:30;;;;;;;6.22;3.58;;;24.30;99.90;;;;;;5026729;28;20494;-75
2023/08/18 06:53:56;;;;;;;4.32;3.92;;;24.30;99.90;;;;;;5020791;28;20029;-75
2023/08/18 06:56:22;;;;;;;5.10;3.92;;;24.40;99.90;;;;;;5017711;28;20035;-76
2023/08/18 06:58:47;;;;;;;4.15;3.72;;;24.50;99.90;;;;;;5020942;28;20044;-75
2023/08/18 07:01:13;;;;;;;5.43;4.03;;;24.60;99.90;;;;;;5026522;28;20049;-75
2023/08/18 07:03:39;;;;;;;8.73;3.70;;;24.60;99.90;;;;;;5031150;28;20076;-75
2023/08/18 07:06:04;;;;;;;4.18;3.80;;;24.60;99.90;;;;;;5032783;28;20033;-74
2023/08/18 07:08:30;;;;;;;4.20;3.80;;;24.50;99.90;;;;;;5035946;28;20009;-73
2023/08/18 07:10:56;;;;;;;4.20;3.63;;;24.60;99.90;;;;;;5023741;28;20025;-74
2023/08/18 07:13:22;;;;;;;3.80;3.40;;;24.60;99.90;;;;;;5022011;28;20037;-75
2023/08/18 07:15:48;;;;;;;5.10;3.53;;;24.70;99.90;;;;;;5017664;28;20033;-74
2023/08/18 07:18:16;;;;;;;4.75;3.67;;;24.80;99.90;;;;;;5037248;28;20025;-73
2023/08/18 07:20:45;;;;;;;3.70;3.42;;;24.90;99.90;;;;;;5038570;28;20029;-73
2023/08/18 07:23:11;;;;;;;4.70;4.05;;;24.70;99.90;;;;;;5015798;28;20404;-73
2023/08/18 07:25:39;;;;;;;3.58;3.28;;;24.80;99.90;;;;;;5032709;28;20037;-73
2023/08/18 07:28:05;;;;;;;4.25;3.20;;;24.80;99.90;;;;;;5024522;28;20140;-73
2023/08/18 07:30:31;;;;;;;6.65;4.60;;;25.00;99.90;;;;;;5032636;28;20027;-73
2023/08/18 07:32:57;;;;;;;4.97;3.42;;;25.10;99.90;;;;;;5034623;28;20047;-73
2023/08/18 07:35:23;;;;;;;4.18;3.10;;;25.10;99.90;;;;;;5031369;28;20033;-75
2023/08/18 07:37:50;;;;;;;3.78;3.40;;;25.10;99.90;;;;;;5032498;28;20099;-75
2023/08/18 07:40:16;;;;;;;4.30;3.55;;;25.10;99.90;;;;;;5035807;28;20493;-74
2023/08/18 07:42:42;;;;;;;3.80;2.97;;;25.10;99.90;;;;;;5028777;28;20060;-67
2023/08/18 07:45:08;;;;;;;5.68;4.10;;;25.20;99.90;;;;;;5029698;28;20116;-73
2023/08/18 07:47:34;;;;;;;4.88;3.50;;;25.20;99.90;;;;;;5032619;28;20017;-72
2023/08/18 07:50:00;;;;;;;4.07;3.30;;;25.30;99.90;;;;;;5035518;28;20067;-73
2023/08/18 07:52:26;;;;;;;4.32;3.33;;;25.40;99.90;;;;;;5038994;28;20080;-72
2023/08/18 07:54:51;;;;;;;4.10;3.17;;;25.40;99.90;;;;;;5035893;28;20048;-73
2023/08/18 07:57:17;;;;;;;5.07;3.47;;;25.50;99.90;;;;;;5038324;28;20033;-72
2023/08/18 07:59:43;;;;;;;4.55;3.65;;;25.60;99.90;;;;;;5033187;28;20052;-73
2023/08/18 08:02:08;;;;;;;4.07;3.53;;;25.70;99.90;;;;;;5035052;28;20029;-72
2023/08/18 08:04:34;;;;;;;5.05;3.47;;;25.70;99.90;;;;;;5016374;28;20032;-72
2023/08/18 08:07:00;;;;;;;7.82;3.45;;;25.80;99.90;;;;;;5035434;28;20038;-72
2023/08/18 08:09:26;;;;;;;4.55;3.35;;;26.00;99.90;;;;;;5034128;28;21298;-72
2023/08/18 08:11:52;;;;;;;4.18;3.78;;;26.00;99.90;;;;;;5038486;28;20134;-72
2023/08/18 08:14:19;;;;;;;4.88;4.22;;;26.30;99.90;;;;;;5033808;28;20024;-72
2023/08/18 08:16:45;;;;;;;5.28;4.43;;;26.40;99.90;;;;;;5034754;28;20032;-72
2023/08/18 08:19:13;;;;;;;4.40;3.83;;;26.40;99.90;;;;;;5029608;28;20037;-72
2023/08/18 08:21:40;;;;;;;5.07;4.32;;;26.30;99.90;;;;;;5019584;28;20216;-72
2023/08/18 08:24:06;;;;;;;5.25;4.40;;;26.30;99.90;;;;;;5033810;28;20040;-72
2023/08/18 08:26:32;;;;;;;4.05;3.65;;;26.20;99.90;;;;;;5030558;28;20108;-72
2023/08/18 08:28:58;;;;;;;4.50;3.63;;;26.20;99.90;;;;;;5024812;28;20113;-73
2023/08/18 08:31:23;;;;;;;4.80;4.18;;;26.20;99.90;;;;;;5035489;28;20025;-72
2023/08/18 08:33:49;;;;;;;5.40;4.13;;;26.10;99.90;;;;;;5033655;28;20021;-72
2023/08/18 08:36:15;;;;;;;4.72;4.20;;;26.00;99.90;;;;;;5034742;28;20075;-72
2023/08/18 08:38:42;;;;;;;4.00;3.53;;;26.00;99.90;;;;;;5035751;28;21006;-72
2023/08/18 08:41:08;;;;;;;7.65;3.50;;;26.00;99.90;;;;;;5034124;28;20068;-72
2023/08/18 08:43:34;;;;;;;5.07;3.33;;;26.10;99.90;;;;;;5009733;28;20060;-72
2023/08/18 08:46:00;;;;;;;3.78;3.47;;;26.10;99.90;;;;;;5034292;28;20117;-72
2023/08/18 08:48:40;;;;;;;6.88;3.38;;;26.20;99.90;;;;;;5031099;28;20080;-72
2023/08/18 08:51:10;;;;;;;3.60;3.30;;;26.30;99.90;;;;;;5034430;28;20030;-72
2023/08/18 08:53:39;;;;;;;3.90;3.40;;;26.30;99.90;;;;;;5033472;28;20037;-71
2023/08/18 08:56:07;;;;;;;4.40;3.58;;;26.40;99.90;;;;;;5029023;28;20029;-72
2023/08/18 08:58:34;;;;;;;3.72;3.33;;;26.40;99.90;;;;;;5023526;28;20095;-71
2023/08/18 09:01:01;;;;;;;4.00;3.70;;;26.30;99.90;;;;;;5027420;28;21232;-73
2023/08/18 09:03:30;;;;;;;3.97;3.58;;;26.20;99.90;;;;;;5031824;28;20068;-72
2023/08/18 09:05:55;;;;;;;3.90;3.60;;;26.10;99.90;;;;;;5031173;28;20037;-72
2023/08/18 09:08:21;;;;;;;5.28;3.78;;;26.10;99.90;;;;;;5034196;28;20029;-72
2023/08/18 09:10:47;;;;;;;3.67;3.38;;;26.10;99.90;;;;;;5032536;28;20079;-72
2023/08/18 09:13:13;;;;;;;4.30;3.90;;;26.10;99.90;;;;;;5021154;28;20134;-72
2023/08/18 09:15:45;;;;;;;3.75;3.38;;;26.10;99.90;;;;;;5035466;28;20021;-72
2023/08/18 09:18:14;;;;;;;5.15;3.38;;;26.30;99.90;;;;;;5037583;28;20021;-73
2023/08/18 09:20:44;;;;;;;4.07;3.58;;;26.40;99.90;;;;;;5033649;28;20076;-72
2023/08/18 09:23:10;;;;;;;5.10;4.13;;;26.50;99.90;;;;;;5036866;28;20029;-72
2023/08/18 09:25:36;;;;;;;4.13;3.72;;;26.50;99.90;;;;;;5028094;28;20500;-72
2023/08/18 09:28:06;;;;;;;3.95;3.35;;;26.50;99.90;;;;;;5027235;28;20060;-73
2023/08/18 09:30:32;;;;;;;4.03;3.60;;;26.60;99.90;;;;;;5015438;28;20721;-72
2023/08/18 09:33:04;;;;;;;4.68;3.60;;;26.60;99.90;;;;;;5032500;28;20037;-73
2023/08/18 09:35:36;;;;;;;;;;;26.50;99.90;;;;;;5029021;28;20559;-73
2023/08/18 09:38:02;;;;;;;4.72;3.75;;;26.60;99.90;;;;;;5027819;28;19924;-73
2023/08/18 09:40:28;;;;;;;3.92;3.38;;;26.70;99.90;;;;;;5030556;28;20029;-66
2023/08/18 09:42:55;;;;;;;7.05;4.63;;;26.90;99.90;;;;;;5015217;28;20170;-66
2023/08/18 09:45:23;;;;;;;4.30;3.70;;;27.00;99.90;;;;;;5030149;28;20067;-66
2023/08/18 09:47:55;;;;;;;5.90;3.70;;;27.20;99.90;;;;;;5028904;28;20041;-66
2023/08/18 09:50:27;;;;;;;4.15;3.83;;;27.20;99.90;;;;;;5032403;28;20813;-66
2023/08/18 09:52:54;;;;;;;5.13;4.07;;;27.10;99.90;;;;;;5031447;28;20132;-66
2023/08/18 09:55:28;;;;;;;4.28;3.53;;;27.10;99.90;;;;;;5028034;28;20081;-66
2023/08/18 09:58:00;;;;;;;4.10;3.80;;;26.90;99.90;;;;;;5031097;28;20095;-66
2023/08/18 10:00:27;;;;;;;3.90;3.45;;;27.00;99.90;;;;;;5019290;28;20052;-66
2023/08/18 10:02:58;;;;;;;4.00;3.60;;;27.00;99.90;;;;;;5025690;28;20409;-66
2023/08/18 10:05:24;;;;;;;4.30;3.67;;;27.10;99.90;;;;;;5031531;28;20063;-66
2023/08/18 10:07:51;;;;;;;3.97;3.63;;;27.20;99.90;;;;;;5034385;28;20033;-65
2023/08/18 10:10:19;;;;;;;4.00;3.60;;;27.20;99.90;;;;;;5029170;28;20032;-65
2023/08/18 10:12:45;;;;;;;4.45;3.25;;;27.20;99.90;;;;;;5031713;28;20028;-66
2023/08/18 10:15:12;;;;;;;3.72;3.42;;;27.30;99.90;;;;;;5028433;28;20022;-66
2023/08/18 10:17:38;;;;;;;4.05;3.75;;;27.30;99.90;;;;;;5029502;28;20029;-66
2023/08/18 10:20:04;;;;;;;5.20;3.45;;;27.40;99.90;;;;;;5012020;28;20036;-66
2023/08/18 10:22:34;;;;;;;3.60;3.30;;;27.40;99.90;;;;;;5028823;28;20029;-66
2023/08/18 10:24:59;;;;;;;3.30;3.10;;;27.60;99.90;;;;;;5013327;28;20038;-66
2023/08/18 10:27:28;;;;;;;4.32;3.58;;;27.70;99.90;;;;;;5014152;28;20122;-66
2023/08/18 10:30:00;;;;;;;4.10;3.20;;;27.90;99.90;;;;;;5034082;28;20056;-66
2023/08/18 10:32:27;;;;;;;3.50;3.17;;;28.00;99.90;;;;;;5029479;28;20136;-66
2023/08/18 10:34:52;;;;;;;4.10;3.75;;;28.20;99.90;;;;;;5032791;28;20493;-66
2023/08/18 10:37:22;;;;;;;9.02;3.58;;;28.30;99.90;;;;;;5031943;28;20037;-72
2023/08/18 10:39:50;;;;;;;3.67;3.38;;;28.40;99.90;;;;;;5034492;28;20025;-72
2023/08/18 10:42:16;;;;;;;3.90;3.50;;;28.40;99.90;;;;;;5031121;28;20041;-72
2023/08/18 10:45:00;;;;;;;3.60;3.30;;;28.40;99.90;;;;;;5035788;28;20760;-72
2023/08/18 10:47:34;;;;;;;5.28;3.55;;;28.50;99.90;;;;;;5035566;28;20057;-72
2023/08/18 10:50:04;;;;;;;3.90;3.40;;;28.50;99.90;;;;;;5034534;28;20024;-72
2023/08/18 10:52:30;;;;;;;3.90;3.60;;;28.50;99.90;;;;;;5033926;28;20041;-72
2023/08/18 10:54:56;;;;;;;3.55;3.25;;;28.30;99.90;;;;;;5034759;28;20061;-73
2023/08/18 10:57:23;;;;;;;3.17;2.90;;;28.10;99.90;;;;;;5038507;28;20037;-73
2023/08/18 10:59:50;;;;;;;3.05;2.85;;;28.00;99.90;;;;;;5014891;28;20045;-72
2023/08/18 11:02:16;;;;;;;7.68;3.42;;;27.90;99.90;;;;;;5014596;28;20059;-72
2023/08/18 11:04:42;;;;;;;4.57;3.40;;;27.90;99.90;;;;;;5032665;28;20040;-72
2023/08/18 11:07:07;;;;;;;3.83;3.13;;;27.90;99.90;;;;;;5037907;28;20025;-73
2023/08/18 11:09:37;;;;;;;5.85;3.17;;;27.80;99.90;;;;;;5030649;28;20407;-73
2023/08/18 11:12:03;;;;;;;4.93;3.20;;;27.70;99.90;;;;;;5040283;28;20033;-73
2023/08/18 11:14:30;;;;;;;4.63;3.13;;;27.70;99.90;;;;;;5035670;28;20697;-66
2023/08/18 11:16:56;;;;;;;3.90;2.97;;;27.70;99.90;;;;;;5037107;28;20033;-66
2023/08/18 11:19:22;;;;;;;4.85;3.40;;;27.70;99.90;;;;;;5030080;28;20040;-67
2023/08/18 11:21:47;;;;;;;7.32;2.97;;;27.70;99.90;;;;;;5035522;28;20056;-66
2023/08/18 11:24:13;;;;;;;3.70;2.95;;;27.70;99.90;;;;;;5038342;28;20034;-67
2023/08/18 11:26:39;;;;;;;4.80;3.50;;;27.80;99.90;;;;;;5028491;28;20082;-66
2023/08/18 11:29:06;;;;;;;3.45;2.92;;;28.10;99.90;;;;;;5033264;28;20033;-66
2023/08/18 11:31:32;;;;;;;3.42;3.10;;;28.10;99.90;;;;;;5030010;28;20029;-66
2023/08/18 11:33:58;;;;;;;3.35;3.05;;;28.10;99.90;;;;;;5037581;28;20087;-72
2023/08/18 11:36:31;;;;;;;4.32;3.00;;;28.20;99.90;;;;;;5029776;28;20045;-72
2023/08/18 11:39:06;;;;;;;3.40;3.10;;;28.20;99.90;;;;;;5030452;28;20087;-72
2023/08/18 11:41:38;;;;;;;3.33;3.13;;;28.30;99.90;;;;;;5039947;28;20048;-72
2023/08/18 11:44:08;;;;;;;3.78;3.00;;;28.40;99.90;;;;;;5033646;28;20025;-72
2023/08/18 11:46:38;;;;;;;4.45;3.20;;;28.40;99.90;;;;;;5035982;28;20178;-72
2023/08/18 11:49:18;;;;;;;3.33;2.67;;;28.40;99.90;;;;;;5035439;28;20021;-72
2023/08/18 11:51:57;;;;;;;4.43;2.95;;;28.60;99.90;;;;;;5036252;28;20036;-72
2023/08/18 11:54:31;;;;;;;3.45;3.15;;;28.60;99.90;;;;;;5033963;28;20531;-72
2023/08/18 11:56:57;;;;;;;4.00;3.38;;;28.40;99.90;;;;;;5036909;28;20035;-72
2023/08/18 11:59:24;;;;;;;4.95;3.45;;;28.50;99.90;;;;;;5035537;28;20397;-72
2023/08/18 12:02:00;;;;;;;3.75;3.20;;;28.40;99.90;;;;;;5029921;28;20521;-72
2023/08/18 12:04:27;;;;;;;3.63;3.20;;;28.50;99.90;;;;;;5022685;28;20140;-72
2023/08/18 12:06:53;;;;;;;3.45;3.15;;;28.50;99.90;;;;;;5019492;28;20064;-72
2023/08/18 12:09:19;;;;;;;4.30;3.58;;;28.40;99.90;;;;;;5021873;28;20024;-72
2023/08/18 12:11:45;;;;;;;3.50;3.20;;;28.40;99.90;;;;;;5020876;28;20775;-72
2023/08/18 12:14:10;;;;;;;7.68;3.60;;;28.40;99.90;;;;;;5024427;28;20033;-72
2023/08/18 12:16:36;;;;;;;4.72;3.25;;;28.40;99.90;;;;;;5027359;28;20067;-72
2023/08/18 12:19:05;;;;;;;3.92;3.10;;;28.30;99.90;;;;;;5012289;28;20033;-72
2023/08/18 12:21:31;;;;;;;4.20;3.47;;;28.30;99.90;;;;;;5025987;28;20137;-71
2023/08/18 12:24:01;;;;;;;3.28;3.00;;;28.40;99.90;;;;;;5027474;28;20068;-71
2023/08/18 12:26:26;;;;;;;4.32;3.83;;;28.40;99.90;;;;;;5021206;28;20117;-72
2023/08/18 12:28:52;;;;;;;5.25;3.35;;;28.50;99.90;;;;;;5022118;28;20682;-72
2023/08/18 12:31:22;;;;;;;4.18;3.22;;;28.50;99.90;;;;;;5029265;28;20041;-72
2023/08/18 12:33:47;;;;;;;3.50;3.17;;;28.70;99.90;;;;;;5035759;28;20067;-72
2023/08/18 12:36:14;;;;;;;3.10;2.80;;;28.70;99.90;;;;;;5031028;28;20047;-72
2023/08/18 12:38:40;;;;;;;3.35;3.05;;;28.60;99.90;;;;;;5035260;28;20101;-72
2023/08/18 12:41:06;;;;;;;5.28;3.72;;;28.70;99.90;;;;;;5026571;28;20127;-72
2023/08/18 12:43:31;;;;;;;3.00;2.75;;;28.70;99.90;;;;;;5031417;28;20040;-72
2023/08/18 12:45:58;;;;;;;3.40;3.10;;;28.80;99.90;;;;;;5036242;28;20033;-73